createdAt,value
2018-03-19T00:00:00.509Z,-1.00
2018-03-19T00:05:03.802Z,-1.10
2018-03-19T00:10:07.081Z,-1.10
2018-03-19T00:15:10.446Z,-1.10
2018-03-19T00:20:13.708Z,-1.10
2018-03-19T00:25:16.956Z,-1.10
2018-03-19T00:30:20.189Z,-1.20
2018-03-19T00:35:23.469Z,-1.10
2018-03-19T00:40:26.739Z,-1.20
2018-03-19T00:45:30.363Z,-1.10
2018-03-19T00:50:33.620Z,-1.10
2018-03-19T00:55:36.844Z,-1.10
2018-03-19T01:00:40.094Z,-1.10
2018-03-19T01:05:43.353Z,-1.20
2018-03-19T01:10:46.573Z,-1.20
2018-03-19T01:15:50.183Z,-1.20
2018-03-19T01:20:53.887Z,-1.20
2018-03-19T01:25:57.114Z,-1.20
2018-03-19T01:31:00.753Z,-1.20
2018-03-19T01:36:03.981Z,-1.20
2018-03-19T01:41:07.295Z,-1.30
2018-03-19T01:46:10.526Z,-1.20
2018-03-19T01:51:15.342Z,-1.30
2018-03-19T01:56:18.579Z,-1.20
2018-03-19T02:01:22.206Z,-1.30
2018-03-19T02:06:25.811Z,-1.30
2018-03-19T02:11:29.032Z,-1.30
2018-03-19T02:16:32.651Z,-1.30
2018-03-19T02:21:36.316Z,-1.30
2018-03-19T02:26:39.555Z,-1.30
2018-03-19T02:31:43.192Z,-1.20
2018-03-19T02:36:46.419Z,-1.20
2018-03-19T02:41:49.646Z,-1.10
2018-03-19T02:46:52.888Z,-1.00
2018-03-19T02:51:56.207Z,-1.10
2018-03-19T02:56:59.398Z,-1.10
2018-03-19T03:02:02.628Z,-1.20
2018-03-19T03:07:05.853Z,-1.20
2018-03-19T03:12:09.068Z,-1.10
2018-03-19T03:17:12.290Z,-1.00
2018-03-19T03:22:15.504Z,-1.00
2018-03-19T03:27:18.724Z,-1.10
2018-03-19T03:32:22.038Z,-1.20
2018-03-19T03:37:25.247Z,-1.20
2018-03-19T03:42:28.467Z,-1.20
2018-03-19T03:47:32.135Z,-1.20
2018-03-19T03:52:35.348Z,-1.20
2018-03-19T03:57:38.572Z,-1.20
2018-03-19T04:02:41.881Z,-1.20
2018-03-19T04:07:45.130Z,-1.10
2018-03-19T04:12:48.358Z,-1.20
2018-03-19T04:17:51.686Z,-1.00
2018-03-19T04:22:54.912Z,-1.10
2018-03-19T04:27:58.536Z,-1.00
2018-03-19T04:33:02.266Z,-1.10
2018-03-19T04:38:05.545Z,-1.10
2018-03-19T04:43:08.768Z,-1.00
2018-03-19T04:48:12.492Z,-1.00
2018-03-19T04:53:16.492Z,-1.10
2018-03-19T04:58:20.312Z,-1.10
2018-03-19T05:03:23.539Z,-1.10
2018-03-19T05:08:26.809Z,-1.10
2018-03-19T05:13:30.051Z,-1.10
2018-03-19T05:18:33.747Z,-1.10
2018-03-19T05:23:36.998Z,-1.10
2018-03-19T05:28:40.336Z,-1.10
2018-03-19T05:33:43.576Z,-1.20
2018-03-19T05:38:47.216Z,-1.20
2018-03-19T05:43:50.427Z,-1.20
2018-03-19T05:48:53.669Z,-1.10
2018-03-19T05:53:56.887Z,-1.10
2018-03-19T05:59:00.129Z,-1.00
2018-03-19T06:04:03.348Z,-1.00
2018-03-19T06:09:06.610Z,-1.00
2018-03-19T06:14:09.849Z,-1.00
2018-03-19T06:19:13.067Z,-0.90
2018-03-19T06:24:16.291Z,-1.00
2018-03-19T06:29:19.540Z,-1.00
2018-03-19T06:34:22.820Z,-1.00
2018-03-19T06:39:27.159Z,-0.90
2018-03-19T06:44:30.387Z,-0.70
2018-03-19T06:49:33.664Z,-0.90
2018-03-19T06:54:36.901Z,-0.90
2018-03-19T06:59:40.141Z,-0.80
2018-03-19T07:04:43.369Z,-0.90
2018-03-19T07:09:47.736Z,-0.90
2018-03-19T07:14:50.965Z,-0.90
2018-03-19T07:19:54.573Z,-0.80
2018-03-19T07:24:58.188Z,-0.80
2018-03-19T07:30:01.815Z,-0.90
2018-03-19T07:35:05.436Z,-0.90
2018-03-19T07:40:08.730Z,-0.90
2018-03-19T07:45:12.022Z,-0.90
2018-03-19T07:50:15.253Z,-0.90
2018-03-19T07:55:18.535Z,-0.80
2018-03-19T08:00:21.792Z,-0.70
2018-03-19T08:05:25.150Z,-0.60
2018-03-19T08:10:28.364Z,-0.50
2018-03-19T08:15:31.982Z,-0.30
2018-03-19T08:20:35.280Z,-0.30
2018-03-19T08:25:38.910Z,-0.20
2018-03-19T08:30:42.534Z,-0.10
2018-03-19T08:35:45.776Z,-0.10
2018-03-19T08:40:48.991Z,-0.10
2018-03-19T08:45:52.228Z,-0.10
2018-03-19T08:50:56.368Z,-0.10
2018-03-19T08:55:59.991Z,-0.10
2018-03-19T09:01:03.612Z,-0.10
2018-03-19T09:06:06.840Z,-0.10
2018-03-19T09:11:10.335Z,0.00
2018-03-19T09:16:14.037Z,-0.10
2018-03-19T09:21:17.951Z,0.00
2018-03-19T09:26:22.552Z,0.30
2018-03-19T09:31:25.804Z,0.30
2018-03-19T09:36:29.414Z,0.00
2018-03-19T09:41:33.057Z,0.20
2018-03-19T09:46:36.331Z,0.20
2018-03-19T09:51:40.073Z,0.50
2018-03-19T09:56:45.715Z,0.50
2018-03-19T10:01:49.114Z,0.60
2018-03-19T10:06:54.183Z,0.70
2018-03-19T10:11:59.013Z,0.90
2018-03-19T10:17:02.716Z,1.30
2018-03-19T10:22:05.951Z,1.20
2018-03-19T10:27:09.191Z,1.20
2018-03-19T10:32:12.434Z,1.00
2018-03-19T10:37:15.844Z,1.00
2018-03-19T10:42:19.635Z,1.10
2018-03-19T10:47:23.599Z,1.10
2018-03-19T10:52:28.287Z,1.00
2018-03-19T10:57:31.521Z,1.00
2018-03-19T11:02:40.461Z,0.90
2018-03-19T11:13:22.414Z,1.00
2018-03-19T11:18:25.635Z,1.00
2018-03-19T11:23:29.249Z,1.20
2018-03-19T11:28:32.993Z,1.30
2018-03-19T11:33:36.669Z,1.40
2018-03-19T11:38:39.970Z,1.40
2018-03-19T11:43:43.294Z,1.40
2018-03-19T11:48:47.001Z,1.20
2018-03-19T11:53:50.244Z,1.20
2018-03-19T11:58:53.517Z,1.20
2018-03-19T12:03:56.740Z,1.10
2018-03-19T12:08:59.967Z,1.10
2018-03-19T12:14:03.209Z,1.20
2018-03-19T12:19:07.012Z,1.30
2018-03-19T12:24:10.367Z,1.30
2018-03-19T12:29:14.330Z,1.00
2018-03-19T12:34:17.677Z,1.20
2018-03-19T12:39:21.511Z,1.30
2018-03-19T12:44:24.731Z,1.30
2018-03-19T12:49:28.404Z,1.70
2018-03-19T12:54:31.622Z,1.70
2018-03-19T12:59:34.952Z,2.60
2018-03-19T13:04:38.161Z,2.30
2018-03-19T13:09:41.832Z,1.70
2018-03-19T13:14:45.072Z,1.70
2018-03-19T13:19:48.400Z,1.40
2018-03-19T13:30:58.646Z,1.40
2018-03-19T13:36:02.097Z,1.10
2018-03-19T13:41:05.321Z,1.20
2018-03-19T13:46:09.018Z,1.00
2018-03-19T13:51:12.261Z,1.00
2018-03-19T13:56:15.531Z,0.90
2018-03-19T14:01:18.740Z,1.10
2018-03-19T14:06:22.004Z,1.30
2018-03-19T14:11:25.243Z,1.20
2018-03-19T14:16:28.469Z,1.30
2018-03-19T14:21:32.207Z,1.20
2018-03-19T14:26:35.439Z,1.20
2018-03-19T14:31:38.683Z,0.90
2018-03-19T14:36:42.413Z,0.90
2018-03-19T14:41:46.162Z,1.00
2018-03-19T14:46:49.355Z,0.90
2018-03-19T14:51:52.610Z,0.90
2018-03-19T14:56:55.861Z,1.00
2018-03-19T15:01:59.126Z,1.00
2018-03-19T15:07:02.561Z,1.00
2018-03-19T15:12:06.270Z,1.30
2018-03-19T15:17:09.923Z,1.30
2018-03-19T15:22:13.169Z,1.30
2018-03-19T15:27:16.395Z,1.30
2018-03-19T15:32:19.713Z,1.10
2018-03-19T15:37:23.331Z,1.10
2018-03-19T15:42:27.035Z,1.00
2018-03-19T15:47:30.266Z,1.00
2018-03-19T15:52:33.555Z,1.00
2018-03-19T15:57:37.228Z,0.90
2018-03-19T16:02:40.478Z,0.90
2018-03-19T16:07:43.773Z,0.70
2018-03-19T16:12:46.995Z,0.70
2018-03-19T16:17:50.221Z,0.60
2018-03-19T16:22:53.593Z,0.60
2018-03-19T16:27:57.206Z,0.50
2018-03-19T16:33:00.840Z,0.50
2018-03-19T16:38:04.057Z,0.50
2018-03-19T16:43:07.275Z,0.50
2018-03-19T16:48:10.515Z,0.40
2018-03-19T16:53:14.165Z,0.20
2018-03-19T16:58:17.395Z,0.20
2018-03-19T17:03:20.637Z,0.10
2018-03-19T17:08:24.242Z,0.00
2018-03-19T17:13:27.942Z,0.00
2018-03-19T17:18:31.655Z,-0.10
2018-03-19T17:23:35.483Z,-0.10
2018-03-19T17:28:39.087Z,-0.20
2018-03-19T17:33:42.814Z,-0.30
2018-03-19T17:38:46.092Z,-0.30
2018-03-19T17:43:49.790Z,-0.20
2018-03-19T17:48:55.011Z,-0.20
2018-03-19T17:54:00.385Z,-0.20
2018-03-19T17:59:03.744Z,-0.20
2018-03-19T18:04:06.968Z,-0.30
2018-03-19T18:09:10.376Z,-0.40
2018-03-19T18:14:13.692Z,-0.40
2018-03-19T18:19:16.919Z,-0.40
2018-03-19T18:24:20.557Z,-0.40
2018-03-19T18:29:24.831Z,-0.40
2018-03-19T18:34:28.084Z,-0.40
2018-03-19T18:39:31.354Z,-0.40
2018-03-19T18:44:34.970Z,-0.40
2018-03-19T18:49:38.671Z,-0.40
2018-03-19T18:54:41.905Z,-0.40
2018-03-19T18:59:47.033Z,-0.50
2018-03-19T19:04:50.674Z,-0.50
2018-03-19T19:09:54.954Z,-0.50
2018-03-19T19:14:58.167Z,-0.60
2018-03-19T19:20:01.877Z,-0.60
2018-03-19T19:25:05.562Z,-0.70
2018-03-19T19:30:12.168Z,-0.70
2018-03-19T19:35:18.739Z,-0.70
2018-03-19T19:40:23.944Z,-0.70
2018-03-19T19:45:31.156Z,-0.70
2018-03-19T19:50:36.200Z,-0.70
2018-03-19T19:55:41.124Z,-0.70
2018-03-19T20:00:44.910Z,-0.70
2018-03-19T20:05:51.227Z,-0.80
2018-03-19T20:10:57.425Z,-0.80
2018-03-19T20:16:05.576Z,-0.80
2018-03-19T20:21:09.611Z,-0.90
2018-03-19T20:26:13.792Z,-0.90
2018-03-19T20:31:19.981Z,-0.80
2018-03-19T20:36:24.799Z,-0.80
2018-03-19T20:41:31.756Z,-0.90
2018-03-19T20:46:37.171Z,-1.00
2018-03-19T20:51:41.678Z,-1.00
2018-03-19T20:56:46.605Z,-1.00
2018-03-19T21:01:51.201Z,-1.00
2018-03-19T21:06:57.772Z,-1.00
2018-03-19T21:12:02.472Z,-1.00
2018-03-19T21:17:06.996Z,-1.10
2018-03-19T21:22:10.705Z,-1.00
2018-03-19T21:27:14.626Z,-1.10
2018-03-19T21:32:18.244Z,-1.10
2018-03-19T21:37:22.024Z,-1.10
2018-03-19T21:42:25.653Z,-1.10
2018-03-19T21:47:30.144Z,-1.10
2018-03-19T21:52:34.189Z,-1.10
2018-03-19T21:57:37.812Z,-1.20
2018-03-19T22:02:41.553Z,-1.20
2018-03-19T22:07:45.181Z,-1.20
2018-03-19T22:12:48.495Z,-1.20
2018-03-19T22:17:51.871Z,-1.20
2018-03-19T22:22:55.129Z,-1.20
2018-03-19T22:27:58.475Z,-1.30
2018-03-19T22:33:01.853Z,-1.30
2018-03-19T22:38:05.574Z,-1.20
2018-03-19T22:43:09.585Z,-1.20
2018-03-19T22:48:12.970Z,-1.20
2018-03-19T22:53:16.357Z,-1.30
2018-03-19T22:58:19.745Z,-1.30
2018-03-19T23:03:24.179Z,-1.30
2018-03-19T23:08:27.431Z,-1.30
2018-03-19T23:13:30.687Z,-1.30
2018-03-19T23:18:33.969Z,-1.30
2018-03-19T23:23:37.232Z,-1.40
2018-03-19T23:28:40.950Z,-1.40
2018-03-19T23:33:44.556Z,-1.40
2018-03-19T23:38:48.067Z,-1.40
2018-03-19T23:43:51.714Z,-1.40
2018-03-19T23:54:31.061Z,-1.50
2018-03-19T23:59:34.401Z,-1.50
